Impacts METAR Board
IDs:

KEET - Alabaster/Shelby Cnt, AL, US

Updated at: 0900 UTC 17 Aug 2018
Potential Impact None Slight Moderate High
Time 16/21Z 16/22Z 16/23Z 17/00Z 17/01Z 17/02Z 17/03Z 17/04Z 17/05Z 17/06Z 17/07Z 17/08Z 17/09Z
Temp92 90 90 84 81 79 77 76 76 74 74 75 75
Dewpt72 73 71 72 74 73 72 72 72 72 72 73 73
Altim30.09 30.09 30.08 30.11 30.13 30.14 30.16 30.16 30.15 30.14 30.13 30.13 30.15
VIS10 10 10 10 10 10 10 10 10 10 10 10 10
CIG-- -- -- -- -- -- -- -- -- -- 8 7 6
CoverSCTCLRFEWFEWFEWCLRCLRCLRCLRCLROVCOVCOVC
FltCatVFRVFRVFRVFRVFRVFRVFRVFRVFRVFRIFRIFRIFR
WX--------------------------
WDir1600140170190200180180160160170160190
WSpd7 4 7 6 6 3 6 5 5 3 4 5 5
WGst-- -- -- -- -- -- -- -- -- -- -- -- --
Raw hourly METARs
KEET 162053Z AUTO 16007KT 10SM SCT048 33/22 A3009 RMK AO2 SLP181 T03330222 56015
KEET 162153Z AUTO VRB04KT 10SM CLR 32/23 A3009 RMK AO2 SLP181 T03220228
KEET 162253Z AUTO 14007KT 10SM FEW045 32/22 A3008 RMK AO2 SLP179 T03220217
KEET 162353Z AUTO 17006KT 10SM FEW047 29/22 A3011 RMK AO2 LTG DSNT SW AND W SLP187 T02890222 10333 20289 53006
KEET 170053Z AUTO 19006KT 10SM FEW024 27/23 A3013 RMK AO2 SLP193 T02720233
KEET 170153Z AUTO 20003KT 10SM CLR 26/23 A3014 RMK AO2 SLP197 T02610228
KEET 170253Z AUTO 18006KT 10SM CLR 25/22 A3016 RMK AO2 SLP205 T02500222 53018
KEET 170353Z AUTO 18005KT 10SM CLR 24/22 A3016 RMK AO2 SLP205 T02440222
KEET 170453Z AUTO 16005KT 10SM CLR 24/22 A3015 RMK AO2 SLP202 T02440222
KEET 170553Z AUTO 16003KT 10SM CLR 23/22 A3014 RMK AO2 SLP198 T02330222 10289 20233 403330222 58007
KEET 170653Z AUTO 17004KT 10SM OVC008 23/22 A3013 RMK AO2 CIG 007V012 SLP194 T02330222
KEET 170753Z AUTO 16005KT 10SM OVC007 24/23 A3013 RMK AO2 SLP195 T02390228
KEET 170853Z AUTO 19005KT 10SM OVC006 24/23 A3015 RMK AO2 SLP200 T02390228 53002



Page loaded:  09:32 UTC  |   02:32 AM Pacific  |   03:32 AM Mountain  |   04:32 AM Central  |   05:32 AM Eastern

 

ADVISORIES

FORECASTS

FORECASTS

OBSERVATIONS

USER TOOLS

ABOUT US